createdAt,value
2022-10-17T00:01:13.469Z,96896.91
2022-10-17T00:03:42.794Z,96898.53
2022-10-17T00:06:13.708Z,96899.38
2022-10-17T00:08:43.421Z,96897.72
2022-10-17T00:11:17.729Z,96897.72
2022-10-17T00:13:46.500Z,96898.72
2022-10-17T00:16:15.774Z,96897.09
2022-10-17T00:18:44.126Z,96892.56
2022-10-17T00:21:17.591Z,96892.97
2022-10-17T00:23:46.358Z,96900.13
2022-10-17T00:26:16.746Z,96887.81
2022-10-17T00:28:47.968Z,96903.66
2022-10-17T00:31:18.184Z,96902.78
2022-10-17T00:33:47.278Z,96909.81
2022-10-17T00:36:17.260Z,96904.47
2022-10-17T00:38:48.087Z,96911.19
2022-10-17T00:41:21.204Z,96903.56
2022-10-17T00:43:55.772Z,96908.25
2022-10-17T00:46:26.519Z,96914.63
2022-10-17T00:48:56.894Z,96904.59
2022-10-17T00:51:32.251Z,96905.22
2022-10-17T00:54:02.387Z,96905.88
2022-10-17T00:56:32.876Z,96906.03
2022-10-17T00:59:01.545Z,96917.31
2022-10-17T01:01:30.089Z,96918.66
2022-10-17T01:03:58.480Z,96921.72
2022-10-17T01:06:26.919Z,96928.28
2022-10-17T01:08:55.812Z,96923.13
2022-10-17T01:11:39.840Z,96918.59
2022-10-17T01:14:16.556Z,96924.94
2022-10-17T01:16:53.178Z,96924.69
2022-10-17T01:19:39.801Z,96928.75
2022-10-17T01:22:14.044Z,96925.13
2022-10-17T01:25:17.129Z,96919.91
2022-10-17T01:27:57.812Z,96918.72
2022-10-17T01:30:45.932Z,96914.75
2022-10-17T01:33:23.863Z,96918.28
2022-10-17T01:35:56.113Z,96927.75
2022-10-17T01:38:30.815Z,96932.69
2022-10-17T01:41:04.907Z,96923.69
2022-10-17T01:43:39.391Z,96925.53
2022-10-17T01:46:14.699Z,96926.72
2022-10-17T01:48:47.015Z,96925.53
2022-10-17T01:51:20.407Z,96926.16
2022-10-17T01:53:54.583Z,96923.13
2022-10-17T01:56:27.468Z,96928.38
2022-10-17T01:59:02.214Z,96931.78
2022-10-17T02:01:32.135Z,96930.66
2022-10-17T02:04:03.844Z,96927.53
2022-10-17T02:06:36.376Z,96929.38
2022-10-17T02:09:18.408Z,96927.53
2022-10-17T02:11:56.496Z,96925.34
2022-10-17T02:14:38.891Z,96923.78
2022-10-17T02:17:15.979Z,96927.72
2022-10-17T02:19:57.097Z,96924.44
2022-10-17T02:22:36.771Z,96916.59
2022-10-17T02:25:13.394Z,96934.63
2022-10-17T02:27:49.327Z,96929.63
2022-10-17T02:30:28.533Z,96924.50
2022-10-17T02:33:01.068Z,96931.66
2022-10-17T02:35:34.215Z,96926.53
2022-10-17T02:38:05.098Z,96925.50
2022-10-17T02:40:34.375Z,96923.78
2022-10-17T02:43:02.827Z,96930.00
2022-10-17T02:45:35.962Z,96926.34
2022-10-17T02:48:07.570Z,96925.34
2022-10-17T02:50:47.778Z,96924.50
2022-10-17T02:53:21.056Z,96926.00
2022-10-17T02:55:55.206Z,96935.00
2022-10-17T02:58:29.296Z,96932.25
2022-10-17T03:00:58.202Z,96935.53
2022-10-17T03:03:30.047Z,96936.13
2022-10-17T03:05:59.739Z,96931.91
2022-10-17T03:08:28.308Z,96942.44
2022-10-17T03:10:56.702Z,96951.63
2022-10-17T03:13:25.532Z,96934.09
2022-10-17T03:15:53.867Z,96924.34
2022-10-17T03:18:22.204Z,96927.97
2022-10-17T03:20:50.699Z,96932.56
2022-10-17T03:23:21.060Z,96932.84
2022-10-17T03:25:49.373Z,96936.16
2022-10-17T03:28:17.792Z,96933.50
2022-10-17T03:30:46.108Z,96938.47
2022-10-17T03:33:14.436Z,96936.47
2022-10-17T03:35:42.788Z,96947.94
2022-10-17T03:38:11.722Z,96939.78
2022-10-17T03:40:41.408Z,96933.59
2022-10-17T03:43:11.424Z,96931.59
2022-10-17T03:45:39.794Z,96941.41
2022-10-17T03:48:08.265Z,96935.25
2022-10-17T03:50:36.624Z,96942.44
2022-10-17T03:53:04.995Z,96951.25
2022-10-17T03:55:33.773Z,96934.44
2022-10-17T03:58:03.539Z,96940.59
2022-10-17T04:00:31.821Z,96936.94
2022-10-17T04:03:00.336Z,96941.41
2022-10-17T04:05:28.649Z,96943.25
2022-10-17T04:07:58.766Z,96945.91
2022-10-17T04:10:29.663Z,96951.25
2022-10-17T04:12:58.024Z,96948.59
2022-10-17T04:15:27.887Z,96944.94
2022-10-17T04:17:56.327Z,96951.91
2022-10-17T04:20:24.919Z,96952.72
2022-10-17T04:22:53.320Z,96956.22
2022-10-17T04:25:21.755Z,96959.53
2022-10-17T04:27:50.125Z,96960.72
2022-10-17T04:30:18.978Z,96964.03
2022-10-17T04:32:48.677Z,96949.69
2022-10-17T04:35:17.224Z,96952.19
2022-10-17T04:37:45.584Z,96946.22
2022-10-17T04:40:14.679Z,96943.56
2022-10-17T04:42:43.007Z,96948.41
2022-10-17T04:45:11.768Z,96938.75
2022-10-17T04:47:40.086Z,96945.09
2022-10-17T04:50:10.465Z,96939.38
2022-10-17T04:52:38.798Z,96945.75
2022-10-17T04:55:07.894Z,96942.25
2022-10-17T04:57:36.887Z,96941.41
2022-10-17T05:00:06.241Z,96950.44
2022-10-17T05:02:34.606Z,96952.63
2022-10-17T05:05:04.238Z,96952.97
2022-10-17T05:07:33.959Z,96953.44
2022-10-17T05:10:02.467Z,96960.44
2022-10-17T05:12:31.154Z,96966.75
2022-10-17T05:14:59.697Z,96962.25
2022-10-17T05:17:28.139Z,96962.91
2022-10-17T05:19:56.491Z,96965.78
2022-10-17T05:22:24.835Z,96959.78
2022-10-17T05:24:54.759Z,96962.34
2022-10-17T05:27:23.150Z,96967.56
2022-10-17T05:29:51.463Z,96970.97
2022-10-17T05:32:19.841Z,96975.81
2022-10-17T05:34:48.262Z,96976.81
2022-10-17T05:37:16.575Z,96975.34
2022-10-17T05:39:49.153Z,96973.41
2022-10-17T05:42:21.192Z,96977.25
2022-10-17T05:44:49.551Z,96987.66
2022-10-17T05:47:18.436Z,96987.19
2022-10-17T05:49:51.474Z,96993.53
2022-10-17T05:52:20.984Z,96987.06
2022-10-17T05:54:49.301Z,96990.94
2022-10-17T05:57:17.775Z,97002.94
2022-10-17T05:59:47.408Z,97003.03
2022-10-17T06:02:16.477Z,97004.19
2022-10-17T06:04:46.187Z,97003.34
2022-10-17T06:07:15.203Z,97011.16
2022-10-17T06:09:43.849Z,97000.03
2022-10-17T06:12:12.292Z,97014.19
2022-10-17T06:14:40.587Z,97012.16
2022-10-17T06:17:15.583Z,97020.09
2022-10-17T06:19:45.285Z,97025.25
2022-10-17T06:22:13.731Z,97025.91
2022-10-17T06:24:42.392Z,97032.41
2022-10-17T06:27:12.104Z,97022.59
2022-10-17T06:29:40.873Z,97030.03
2022-10-17T06:32:14.124Z,97034.00
2022-10-17T06:34:43.712Z,97039.16
2022-10-17T06:37:12.238Z,97041.66
2022-10-17T06:39:40.724Z,97051.78
2022-10-17T06:42:09.140Z,97052.28
2022-10-17T06:44:37.580Z,97057.59
2022-10-17T06:47:05.963Z,97059.44
2022-10-17T06:49:35.695Z,97067.09
2022-10-17T06:52:04.080Z,97071.06
2022-10-17T06:54:32.732Z,97076.84
2022-10-17T06:57:01.037Z,97064.38
2022-10-17T06:59:29.431Z,97083.72
2022-10-17T07:01:57.743Z,97076.25
2022-10-17T07:04:26.175Z,97085.28
2022-10-17T07:06:55.990Z,97083.50
2022-10-17T07:09:25.032Z,97091.50
2022-10-17T07:11:53.435Z,97085.00
2022-10-17T07:14:21.775Z,97088.13
2022-10-17T07:16:50.135Z,97089.97
2022-10-17T07:19:18.501Z,97093.00
2022-10-17T07:21:47.399Z,97102.47
2022-10-17T07:24:17.360Z,97103.94
2022-10-17T07:26:45.789Z,97102.69
2022-10-17T07:29:14.155Z,97110.81
2022-10-17T07:31:42.487Z,97107.31
2022-10-17T07:34:10.863Z,97114.38
2022-10-17T07:36:39.297Z,97114.31
2022-10-17T07:39:08.021Z,97119.47
2022-10-17T07:41:37.811Z,97116.38
2022-10-17T07:44:06.825Z,97120.31
2022-10-17T07:46:35.376Z,97120.25
2022-10-17T07:49:03.836Z,97121.22
2022-10-17T07:51:32.274Z,97114.88
2022-10-17T07:54:00.863Z,97120.13
2022-10-17T07:56:29.694Z,97129.06
2022-10-17T07:59:01.681Z,97128.44
2022-10-17T08:01:32.305Z,97130.91
2022-10-17T08:04:00.656Z,97126.72
2022-10-17T08:06:28.988Z,97129.66
2022-10-17T08:08:58.787Z,97128.09
2022-10-17T08:11:27.563Z,97129.06
2022-10-17T08:13:55.915Z,97115.47
2022-10-17T08:16:25.612Z,97120.25
2022-10-17T08:18:53.991Z,97120.69
2022-10-17T08:21:22.337Z,97123.72
2022-10-17T08:23:50.694Z,97113.22
2022-10-17T08:26:20.058Z,97111.94
2022-10-17T08:28:48.724Z,97120.94
2022-10-17T08:31:20.049Z,97115.13
2022-10-17T08:33:51.356Z,97117.50
2022-10-17T08:36:22.500Z,97119.72
2022-10-17T08:38:53.047Z,97125.41
2022-10-17T08:41:38.384Z,97125.09
2022-10-17T08:44:16.006Z,97116.78
2022-10-17T08:46:48.356Z,97118.53
2022-10-17T08:49:26.468Z,97110.38
2022-10-17T08:52:00.033Z,97110.88
2022-10-17T08:54:39.381Z,97109.28
2022-10-17T08:57:12.877Z,97111.22
2022-10-17T08:59:41.315Z,97107.56
2022-10-17T09:02:29.778Z,97103.09
2022-10-17T09:05:35.914Z,97107.91
2022-10-17T09:08:18.677Z,97110.44
2022-10-17T09:10:56.275Z,97112.34
2022-10-17T09:13:37.857Z,97102.31
2022-10-17T09:16:20.706Z,97108.13
2022-10-17T09:18:57.684Z,97096.84
2022-10-17T09:21:37.624Z,97097.28
2022-10-17T09:24:15.829Z,97103.69
2022-10-17T09:26:46.894Z,97108.06
2022-10-17T09:29:23.539Z,97101.91
2022-10-17T09:31:59.501Z,97107.97
2022-10-17T09:34:30.649Z,97103.44
2022-10-17T09:37:02.181Z,97098.94
2022-10-17T09:39:32.099Z,97104.13
2022-10-17T09:42:03.707Z,97104.59
2022-10-17T09:44:33.804Z,97098.66
2022-10-17T09:47:27.080Z,97104.25
2022-10-17T09:49:55.523Z,97106.38
2022-10-17T09:52:29.803Z,97103.53
2022-10-17T09:55:02.831Z,97106.22
2022-10-17T09:57:55.747Z,97107.88
2022-10-17T10:00:25.981Z,97116.78
2022-10-17T10:03:10.611Z,97121.94
2022-10-17T10:05:39.010Z,97118.44
2022-10-17T10:08:16.086Z,97116.38
2022-10-17T10:10:45.251Z,97121.72
2022-10-17T10:13:21.400Z,97110.59
2022-10-17T10:15:51.602Z,97112.84
2022-10-17T10:18:32.476Z,97123.44
2022-10-17T10:21:07.635Z,97116.59
2022-10-17T10:23:40.059Z,97121.34
2022-10-17T10:26:26.774Z,97117.78
2022-10-17T10:28:58.902Z,97119.03
2022-10-17T10:31:30.619Z,97119.59
2022-10-17T10:34:02.611Z,97116.47
2022-10-17T10:36:48.661Z,97117.06
2022-10-17T10:39:49.812Z,97115.56
2022-10-17T10:42:22.915Z,97115.78
2022-10-17T10:44:52.847Z,97116.75
2022-10-17T10:47:23.871Z,97118.97
2022-10-17T10:49:54.195Z,97114.16
2022-10-17T10:52:31.688Z,97111.22
2022-10-17T10:55:15.475Z,97122.34
2022-10-17T10:57:46.105Z,97117.75
2022-10-17T11:00:20.862Z,97118.75
2022-10-17T11:03:01.890Z,97114.31
2022-10-17T11:05:41.275Z,97107.03
2022-10-17T11:08:21.247Z,97111.75
2022-10-17T11:11:03.088Z,97110.84
2022-10-17T11:13:34.999Z,97110.81
2022-10-17T11:16:15.634Z,97116.75
2022-10-17T11:18:49.106Z,97109.13
2022-10-17T11:21:22.046Z,97103.03
2022-10-17T11:23:59.807Z,97106.63
2022-10-17T11:26:33.352Z,97110.25
2022-10-17T11:29:06.852Z,97105.38
2022-10-17T11:31:39.748Z,97106.72
2022-10-17T11:34:19.454Z,97099.16
2022-10-17T11:36:59.422Z,97102.38
2022-10-17T11:39:33.419Z,97101.25
2022-10-17T11:42:08.866Z,97102.56
2022-10-17T11:44:38.764Z,97101.44
2022-10-17T11:47:15.547Z,97106.72
2022-10-17T11:49:51.489Z,97102.88
2022-10-17T11:52:54.878Z,97100.38
2022-10-17T11:55:23.611Z,97108.94
2022-10-17T11:58:14.347Z,97108.59
2022-10-17T12:00:53.639Z,97101.09
2022-10-17T12:03:41.353Z,97105.69
2022-10-17T12:06:18.996Z,97099.72
2022-10-17T12:08:59.508Z,97100.91
2022-10-17T12:11:41.860Z,97103.25
2022-10-17T12:14:40.744Z,97106.31
2022-10-17T12:17:29.544Z,97102.44
2022-10-17T12:20:30.580Z,97110.31
2022-10-17T12:23:19.355Z,97101.06
2022-10-17T12:25:53.725Z,97100.94
2022-10-17T12:28:29.122Z,97103.19
2022-10-17T12:31:02.475Z,97100.94
2022-10-17T12:33:36.736Z,97098.53
2022-10-17T12:36:49.015Z,97102.53
2022-10-17T12:39:51.355Z,97099.69
2022-10-17T12:42:46.719Z,97096.41
2022-10-17T12:45:49.975Z,97094.50
2022-10-17T12:48:55.375Z,97086.97
2022-10-17T12:51:41.215Z,97087.53
2022-10-17T12:54:13.814Z,97094.97
2022-10-17T12:56:44.250Z,97087.53
2022-10-17T12:59:17.810Z,97089.28
2022-10-17T13:01:49.762Z,97086.09
2022-10-17T13:04:19.646Z,97089.53
2022-10-17T13:06:53.989Z,97091.25
2022-10-17T13:09:28.627Z,97084.88
2022-10-17T13:11:59.555Z,97077.09
2022-10-17T13:14:29.951Z,97086.19
2022-10-17T13:17:00.965Z,97081.03
2022-10-17T13:19:32.320Z,97077.34
2022-10-17T13:22:07.093Z,97080.06
2022-10-17T13:24:38.136Z,97085.81
2022-10-17T13:27:08.587Z,97080.16
2022-10-17T13:29:44.972Z,97082.63
2022-10-17T13:32:13.712Z,97071.66
2022-10-17T13:34:42.164Z,97077.16
2022-10-17T13:37:16.564Z,97071.00
2022-10-17T13:40:00.302Z,97067.59
2022-10-17T13:42:40.496Z,97069.47
2022-10-17T13:45:20.166Z,97065.69
2022-10-17T13:47:48.980Z,97073.00
2022-10-17T13:50:43.479Z,97070.78
2022-10-17T13:53:30.399Z,97073.72
2022-10-17T13:56:26.922Z,97075.16
2022-10-17T13:58:52.996Z,97071.13
2022-10-17T14:01:23.250Z,97072.16
2022-10-17T14:04:02.140Z,97074.28
2022-10-17T14:06:45.106Z,97074.28
2022-10-17T14:09:23.355Z,97072.66
2022-10-17T14:12:02.452Z,97068.88
2022-10-17T14:14:46.230Z,97073.47
2022-10-17T14:17:25.987Z,97075.63
2022-10-17T14:20:14.147Z,97074.28
2022-10-17T14:22:50.476Z,97084.06
2022-10-17T14:25:32.045Z,97072.44
2022-10-17T14:28:08.060Z,97076.78
2022-10-17T14:30:55.653Z,97077.50
2022-10-17T14:33:27.900Z,97073.41
2022-10-17T14:35:58.607Z,97070.69
2022-10-17T14:38:28.853Z,97075.84
2022-10-17T14:41:23.580Z,97075.78
2022-10-17T14:43:55.828Z,97079.19
2022-10-17T14:46:25.113Z,97082.63
2022-10-17T14:48:56.130Z,97075.25
2022-10-17T14:51:24.724Z,97088.16
2022-10-17T14:54:05.485Z,97085.16
2022-10-17T14:56:42.428Z,97081.50
2022-10-17T14:59:12.603Z,97089.06
2022-10-17T15:01:46.542Z,97092.22
2022-10-17T15:04:15.184Z,97096.25
2022-10-17T15:06:43.833Z,97095.28
2022-10-17T15:09:14.168Z,97096.56
2022-10-17T15:11:44.135Z,97094.81
2022-10-17T15:14:12.549Z,97101.75
2022-10-17T15:16:40.876Z,97097.06
2022-10-17T15:19:10.639Z,97105.06
2022-10-17T15:21:43.230Z,97101.19
2022-10-17T15:24:15.087Z,97105.69
2022-10-17T15:26:44.990Z,97104.72
2022-10-17T15:29:16.654Z,97108.38
2022-10-17T15:31:45.416Z,97103.13
2022-10-17T15:34:13.754Z,97111.91
2022-10-17T15:36:43.896Z,97117.22
2022-10-17T15:39:12.284Z,97120.00
2022-10-17T15:41:40.630Z,97116.56
2022-10-17T15:44:10.748Z,97122.09
2022-10-17T15:46:41.959Z,97121.38
2022-10-17T15:49:13.990Z,97122.31
2022-10-17T15:51:42.588Z,97119.13
2022-10-17T15:56:54.937Z,97124.81
2022-10-17T15:59:35.892Z,97126.44
2022-10-17T16:02:04.427Z,97136.31
2022-10-17T16:04:32.739Z,97135.22
2022-10-17T16:07:01.155Z,97147.22
2022-10-17T16:09:30.036Z,97153.84
2022-10-17T16:11:58.448Z,97142.81
2022-10-17T16:14:28.355Z,97151.06
2022-10-17T16:16:56.776Z,97148.72
2022-10-17T16:19:27.159Z,97151.91
2022-10-17T16:22:00.844Z,97160.50
2022-10-17T16:24:32.619Z,97160.75
2022-10-17T16:27:00.939Z,97159.03
2022-10-17T16:29:30.701Z,97162.81
2022-10-17T16:31:59.000Z,97166.19
2022-10-17T16:34:29.261Z,97168.13
2022-10-17T16:36:57.631Z,97169.88
2022-10-17T16:41:59.255Z,97178.66
2022-10-17T16:44:27.750Z,97181.81
2022-10-17T16:46:57.432Z,97187.44
2022-10-17T16:49:25.847Z,97180.44
2022-10-17T16:51:54.220Z,97182.13
2022-10-17T16:54:22.571Z,97181.75
2022-10-17T16:56:50.951Z,97184.25
2022-10-17T16:59:19.351Z,97196.25
2022-10-17T17:01:47.713Z,97188.03
2022-10-17T17:04:17.928Z,97184.50
2022-10-17T17:06:46.349Z,97194.22
2022-10-17T17:09:14.871Z,97187.66
2022-10-17T17:11:43.368Z,97192.81
2022-10-17T17:14:11.987Z,97192.22
2022-10-17T17:16:40.390Z,97189.09
2022-10-17T17:19:12.105Z,97196.34
2022-10-17T17:21:43.190Z,97191.41
2022-10-17T17:24:11.548Z,97199.41
2022-10-17T17:26:41.185Z,97202.09
2022-10-17T17:29:11.643Z,97197.13
2022-10-17T17:31:40.152Z,97206.19
2022-10-17T17:34:09.657Z,97201.84
2022-10-17T17:36:41.940Z,97202.66
2022-10-17T17:39:12.792Z,97204.47
2022-10-17T17:41:42.748Z,97203.19
2022-10-17T17:44:16.444Z,97206.25
2022-10-17T17:46:46.440Z,97209.53
2022-10-17T17:49:15.239Z,97211.69
2022-10-17T17:51:46.718Z,97210.84
2022-10-17T17:54:16.161Z,97211.19
2022-10-17T17:56:44.606Z,97222.53
2022-10-17T17:59:14.536Z,97215.69
2022-10-17T18:01:44.029Z,97223.09
2022-10-17T18:04:12.495Z,97224.94
2022-10-17T18:06:41.371Z,97218.53
2022-10-17T18:09:11.414Z,97217.47
2022-10-17T18:11:39.948Z,97227.09
2022-10-17T18:14:11.589Z,97228.09
2022-10-17T18:16:40.121Z,97232.00
2022-10-17T18:19:09.987Z,97231.16
2022-10-17T18:21:38.948Z,97230.72
2022-10-17T18:24:08.296Z,97237.09
2022-10-17T18:26:38.508Z,97237.94
2022-10-17T18:29:07.148Z,97241.81
2022-10-17T18:31:36.472Z,97246.72
2022-10-17T18:34:06.297Z,97241.16
2022-10-17T18:36:37.428Z,97241.06
2022-10-17T18:39:06.576Z,97239.53
2022-10-17T18:41:35.185Z,97244.38
2022-10-17T18:44:05.243Z,97237.13
2022-10-17T18:46:36.577Z,97240.56
2022-10-17T18:49:05.489Z,97246.09
2022-10-17T18:51:33.928Z,97245.84
2022-10-17T18:54:03.030Z,97248.28
2022-10-17T18:56:32.299Z,97251.78
2022-10-17T18:59:01.491Z,97253.44
2022-10-17T19:01:31.582Z,97249.09
2022-10-17T19:04:00.545Z,97253.81
2022-10-17T19:06:32.207Z,97250.69
2022-10-17T19:09:01.350Z,97248.00
2022-10-17T19:11:31.866Z,97246.38
2022-10-17T19:14:01.498Z,97245.72
2022-10-17T19:16:33.575Z,97251.44
2022-10-17T19:19:04.777Z,97243.78
2022-10-17T19:21:33.496Z,97252.03
2022-10-17T19:24:04.295Z,97253.59
2022-10-17T19:26:35.673Z,97257.47
2022-10-17T19:29:05.191Z,97253.97
2022-10-17T19:31:36.848Z,97246.41
2022-10-17T19:34:05.731Z,97244.72
2022-10-17T19:36:36.548Z,97256.66
2022-10-17T19:39:06.839Z,97258.69
2022-10-17T19:41:36.359Z,97259.03
2022-10-17T19:44:04.912Z,97262.94
2022-10-17T19:46:35.132Z,97272.34
2022-10-17T19:49:04.211Z,97273.28
2022-10-17T19:51:33.443Z,97269.16
2022-10-17T19:54:03.556Z,97276.31
2022-10-17T19:56:33.703Z,97268.50
2022-10-17T19:59:02.520Z,97272.81
2022-10-17T20:01:34.018Z,97273.00
2022-10-17T20:04:03.827Z,97265.84
2022-10-17T20:06:33.213Z,97275.31
2022-10-17T20:09:01.668Z,97281.88
2022-10-17T20:11:31.101Z,97286.31
2022-10-17T20:14:02.182Z,97282.53
2022-10-17T20:16:32.548Z,97288.06
2022-10-17T20:19:07.531Z,97280.66
2022-10-17T20:21:37.117Z,97287.88
2022-10-17T20:24:08.069Z,97289.09
2022-10-17T20:26:38.638Z,97296.81
2022-10-17T20:29:12.166Z,97295.03
2022-10-17T20:31:42.355Z,97301.66
2022-10-17T20:34:14.840Z,97299.53
2022-10-17T20:36:43.333Z,97304.06
2022-10-17T20:39:13.089Z,97303.69
2022-10-17T20:41:41.472Z,97304.78
2022-10-17T20:44:10.224Z,97301.59
2022-10-17T20:47:00.603Z,97299.38
2022-10-17T20:49:29.729Z,97306.75
2022-10-17T20:51:58.515Z,97309.97
2022-10-17T20:54:28.324Z,97318.06
2022-10-17T20:56:58.720Z,97318.97
2022-10-17T20:59:29.497Z,97311.56
2022-10-17T21:01:58.041Z,97320.41
2022-10-17T21:04:45.334Z,97314.38
2022-10-17T21:07:16.026Z,97309.91
2022-10-17T21:09:45.414Z,97314.13
2022-10-17T21:12:21.604Z,97314.91
2022-10-17T21:14:59.936Z,97313.66
2022-10-17T21:17:28.416Z,97314.53
2022-10-17T21:19:56.968Z,97315.59
2022-10-17T21:22:27.354Z,97313.78
2022-10-17T21:24:55.873Z,97320.50
2022-10-17T21:27:24.253Z,97315.75
2022-10-17T21:29:52.625Z,97311.72
2022-10-17T21:32:33.390Z,97307.38
2022-10-17T21:35:09.477Z,97303.41
2022-10-17T21:37:39.740Z,97302.94
2022-10-17T21:40:09.625Z,97306.28
2022-10-17T21:42:38.082Z,97304.47
2022-10-17T21:45:15.440Z,97297.78
2022-10-17T21:48:10.824Z,97295.63
2022-10-17T21:50:33.226Z,97293.94
2022-10-17T21:53:03.005Z,97285.63
2022-10-17T21:55:31.351Z,97293.84
2022-10-17T21:57:59.689Z,97293.88
2022-10-17T22:00:28.025Z,97301.53
2022-10-17T22:02:56.369Z,97295.44
2022-10-17T22:05:24.931Z,97290.75
2022-10-17T22:07:53.263Z,97276.63
2022-10-17T22:10:22.948Z,97285.91
2022-10-17T22:12:51.267Z,97282.72
2022-10-17T22:15:19.572Z,97285.91
2022-10-17T22:17:47.895Z,97289.06
2022-10-17T22:20:16.312Z,97276.78
2022-10-17T22:22:44.639Z,97268.94
2022-10-17T22:25:12.981Z,97267.59
2022-10-17T22:27:42.662Z,97268.94
2022-10-17T22:30:12.077Z,97270.13
2022-10-17T22:32:40.422Z,97271.50
2022-10-17T22:35:09.619Z,97272.63
2022-10-17T22:37:38.030Z,97278.31
2022-10-17T22:40:07.676Z,97273.66
2022-10-17T22:42:36.547Z,97286.13
2022-10-17T22:45:07.029Z,97280.44
2022-10-17T22:47:35.412Z,97281.41
2022-10-17T22:50:03.771Z,97276.38
2022-10-17T22:52:32.626Z,97270.47
2022-10-17T22:55:02.595Z,97269.06
2022-10-17T22:57:30.935Z,97270.53
2022-10-17T22:59:59.301Z,97261.97
2022-10-17T23:02:29.253Z,97262.63
2022-10-17T23:04:57.837Z,97265.78
2022-10-17T23:07:26.643Z,97266.59
2022-10-17T23:09:55.431Z,97268.28
2022-10-17T23:12:23.924Z,97265.41
2022-10-17T23:14:52.351Z,97266.53
2022-10-17T23:17:20.683Z,97265.56
2022-10-17T23:19:52.919Z,97261.59
2022-10-17T23:22:23.912Z,97267.09
2022-10-17T23:24:52.503Z,97268.28
2022-10-17T23:27:20.905Z,97266.97
2022-10-17T23:29:49.295Z,97262.94
2022-10-17T23:32:19.999Z,97262.09
2022-10-17T23:34:48.394Z,97262.94
2022-10-17T23:37:18.359Z,97262.75
2022-10-17T23:39:47.795Z,97263.22
2022-10-17T23:42:16.135Z,97262.88
2022-10-17T23:44:44.492Z,97265.19
2022-10-17T23:47:13.016Z,97260.53
2022-10-17T23:49:41.379Z,97260.53
2022-10-17T23:52:09.779Z,97258.69
2022-10-17T23:54:39.461Z,97251.84
2022-10-17T23:57:07.848Z,97255.72
2022-10-17T23:59:36.240Z,97249.88
